Lake Edgewood, Indiana
Current Conditions -  °F | °C
As of 5:15 PM on Thursday 23 Oct 2014 (Local Time) from K1II Reporting Station
Haze Haze  
Wind Chill: 15°   Ceiling: Unl
Heat Index: 15°   Visibility: 2.5mi
Dew Point:   Wind: 3mph
Humidity: 51%   Direction: 100°E
Pressure: 30.14"   Gusts: NA
Location:  39.4615°N, 86.4578°W
Report Text: K1II 232115Z AUTO 10003KT 2 1/2SM HZ CLR 15/05 A3014 RMK AO2 VIS 1/2V5
Loading
Personal Weather Stations






























Interactive Weather Map
Tropical Storm Tracking
New forecast layout! Learn more

10-Day Weather Forecast

Advertisements
Track Severe Weather on mobile